Time;durP1;ratioP1;P1;durP2;ratioP2;P2;SDS_P1;SDS_P2;PMS_P1;PMS_P2;Temp;Humidity;BMP_temperature;BMP_pressure;BME280_temperature;BME280_humidity;BME280_pressure;Samples;Min_cycle;Max_cycle;Signal;HPM_P1;HPM_P2
2023/03/01 00:02:06;;;;;;;0.20;0.20;;;-0.10;99.90;;;;;;5054179;28;20106;-74
2023/03/01 00:04:32;;;;;;;0.20;0.20;;;-0.10;99.90;;;;;;5042952;28;20029;-74
2023/03/01 00:06:57;;;;;;;0.20;0.20;;;-0.10;99.90;;;;;;5051306;28;20021;-74
2023/03/01 00:09:23;;;;;;;0.20;0.20;;;0.00;99.90;;;;;;5053897;28;20017;-74
2023/03/01 00:11:49;;;;;;;0.20;0.20;;;0.00;99.90;;;;;;5053684;28;20039;-74
2023/03/01 00:14:17;;;;;;;0.20;0.20;;;0.00;99.90;;;;;;5053928;28;20033;-74
2023/03/01 00:16:44;;;;;;;0.20;0.20;;;0.00;99.90;;;;;;5055761;28;20363;-74
2023/03/01 00:19:13;;;;;;;0.28;0.28;;;0.00;99.90;;;;;;5057951;28;20018;-74
2023/03/01 00:21:39;;;;;;;0.30;0.30;;;0.00;99.90;;;;;;5057372;28;20025;-74
2023/03/01 00:24:05;;;;;;;0.10;0.10;;;0.10;99.90;;;;;;5039548;28;20027;-74
2023/03/01 00:26:33;;;;;;;0.20;0.20;;;0.00;99.90;;;;;;5056792;28;20116;-74
2023/03/01 00:28:59;;;;;;;0.20;0.20;;;0.00;99.90;;;;;;5056930;28;20063;-73
2023/03/01 00:31:30;;;;;;;0.20;0.20;;;0.00;99.90;;;;;;5057666;28;20025;-74
2023/03/01 00:34:02;;;;;;;0.10;0.10;;;0.00;99.90;;;;;;5057025;28;20017;-74
2023/03/01 00:36:31;;;;;;;0.20;0.20;;;0.00;99.90;;;;;;5057415;28;20425;-75
2023/03/01 00:38:57;;;;;;;0.20;0.20;;;-0.10;99.90;;;;;;5038533;28;20025;-74
2023/03/01 00:41:26;;;;;;;0.22;0.22;;;-0.10;99.90;;;;;;5039765;28;20032;-74
2023/03/01 00:43:52;;;;;;;0.22;0.22;;;0.00;99.90;;;;;;5057594;28;20494;-74
2023/03/01 00:46:21;;;;;;;0.20;0.20;;;0.00;99.90;;;;;;5056224;28;20087;-74
2023/03/01 00:48:47;;;;;;;0.20;0.20;;;0.00;99.90;;;;;;5057409;28;20056;-74
2023/03/01 00:51:15;;;;;;;0.20;0.20;;;0.00;99.90;;;;;;5056354;28;20032;-74
2023/03/01 00:53:41;;;;;;;0.20;0.20;;;0.00;99.90;;;;;;5039068;28;20025;-74
2023/03/01 00:56:09;;;;;;;0.20;0.20;;;0.10;99.90;;;;;;5057084;28;20028;-74
2023/03/01 00:58:35;;;;;;;0.20;0.20;;;0.10;99.90;;;;;;5056564;28;20058;-74
2023/03/01 01:01:07;;;;;;;0.30;0.30;;;0.20;99.90;;;;;;5038493;28;20079;-74
2023/03/01 01:03:32;;;;;;;0.20;0.20;;;0.30;99.90;;;;;;5056326;28;20029;-74
2023/03/01 01:05:58;;;;;;;0.20;0.20;;;0.30;99.90;;;;;;5056799;28;20032;-74
2023/03/01 01:08:23;;;;;;;0.20;0.20;;;0.30;99.90;;;;;;5056492;28;20021;-74
2023/03/01 01:10:49;;;;;;;0.20;0.20;;;0.40;99.90;;;;;;5054918;28;20063;-74
2023/03/01 01:13:15;;;;;;;0.10;0.10;;;0.40;99.90;;;;;;5036318;28;20030;-74
2023/03/01 01:15:40;;;;;;;0.13;0.13;;;0.40;99.90;;;;;;5036039;28;20035;-74
2023/03/01 01:18:06;;;;;;;0.20;0.20;;;0.40;99.90;;;;;;5036597;28;20103;-74
2023/03/01 01:20:32;;;;;;;0.20;0.20;;;0.50;99.90;;;;;;5036606;28;20029;-74
2023/03/01 01:22:58;;;;;;;0.20;0.20;;;0.50;99.90;;;;;;5041433;28;20028;-74
2023/03/01 01:25:26;;;;;;;0.20;0.20;;;0.50;99.90;;;;;;5055580;28;20029;-74
2023/03/01 01:27:52;;;;;;;0.20;0.20;;;0.50;99.90;;;;;;5038525;28;20031;-74
2023/03/01 01:30:17;;;;;;;0.10;0.10;;;0.50;99.90;;;;;;5038047;28;20021;-74
2023/03/01 01:32:43;;;;;;;0.13;0.13;;;0.50;99.90;;;;;;5056258;28;20482;-74
2023/03/01 01:35:08;;;;;;;0.20;0.20;;;0.50;99.90;;;;;;5055619;28;20379;-74
2023/03/01 01:37:34;;;;;;;0.20;0.20;;;0.50;99.90;;;;;;5038212;28;20025;-74
2023/03/01 01:40:03;;;;;;;0.10;0.10;;;0.50;99.90;;;;;;5055842;28;20501;-74
2023/03/01 01:42:28;;;;;;;0.20;0.20;;;0.50;99.90;;;;;;5037989;28;20474;-74
2023/03/01 01:45:39;;;;;;;0.20;0.20;;;0.50;99.90;;;;;;5037900;28;20032;-74
2023/03/01 01:48:12;;;;;;;0.10;0.10;;;0.50;99.90;;;;;;5035323;28;20029;-74
2023/03/01 01:50:40;;;;;;;0.13;0.13;;;0.50;99.90;;;;;;5056402;28;20025;-74
2023/03/01 01:53:15;;;;;;;0.20;0.20;;;0.50;99.90;;;;;;5055503;28;20033;-74
2023/03/01 01:55:45;;;;;;;0.10;0.10;;;0.50;99.90;;;;;;5055914;28;20051;-74
2023/03/01 01:58:15;;;;;;;0.20;0.20;;;0.40;99.90;;;;;;5056229;28;20040;-74
2023/03/01 02:00:44;;;;;;;0.20;0.20;;;0.50;99.90;;;;;;5054956;28;20021;-74
2023/03/01 02:03:28;;;;;;;0.10;0.10;;;0.40;99.90;;;;;;5055320;28;20494;-74
2023/03/01 02:06:01;;;;;;;0.17;0.17;;;0.40;99.90;;;;;;5055620;28;20032;-74
2023/03/01 02:08:30;;;;;;;0.20;0.20;;;0.50;99.90;;;;;;5055657;28;20017;-74
2023/03/01 02:10:57;;;;;;;0.20;0.20;;;0.50;99.90;;;;;;5055553;28;20451;-74
2023/03/01 02:13:23;;;;;;;0.17;0.17;;;0.40;99.90;;;;;;5055446;28;20412;-74
2023/03/01 02:15:49;;;;;;;0.10;0.10;;;0.50;99.90;;;;;;5055369;28;20036;-74
2023/03/01 02:18:18;;;;;;;0.20;0.20;;;0.50;99.90;;;;;;5055849;28;20092;-74
2023/03/01 02:21:05;;;;;;;0.22;0.22;;;0.50;99.90;;;;;;5055449;28;20032;-74
2023/03/01 02:23:32;;;;;;;0.20;0.20;;;0.40;99.90;;;;;;5037896;28;20036;-74
2023/03/01 02:26:17;;;;;;;0.20;0.20;;;0.50;99.90;;;;;;5054534;28;20067;-74
2023/03/01 02:28:43;;;;;;;;;;;0.50;99.90;;;;;;5055982;28;20059;-74
2023/03/01 02:33:56;;;;;;;0.20;0.20;;;0.40;99.90;;;;;;5054950;28;20409;-74
2023/03/01 02:36:28;;;;;;;0.20;0.20;;;0.40;99.90;;;;;;5055308;28;20083;-74
2023/03/01 02:38:57;;;;;;;0.20;0.20;;;0.50;99.90;;;;;;5055030;28;20535;-74
2023/03/01 02:41:26;;;;;;;0.20;0.20;;;0.40;99.90;;;;;;5055103;28;20033;-74
2023/03/01 02:43:52;;;;;;;0.20;0.20;;;0.30;99.90;;;;;;5054673;28;20032;-74
2023/03/01 02:46:22;;;;;;;0.20;0.20;;;0.30;99.90;;;;;;5036740;28;20074;-74
2023/03/01 02:48:55;;;;;;;0.20;0.20;;;0.30;99.90;;;;;;5054820;28;20032;-74
2023/03/01 02:51:41;;;;;;;0.20;0.20;;;0.20;99.90;;;;;;5055035;28;20031;-74
2023/03/01 02:54:27;;;;;;;0.20;0.20;;;0.10;99.90;;;;;;5054752;28;20542;-74
2023/03/01 02:56:53;;;;;;;0.20;0.20;;;0.10;99.90;;;;;;5036641;28;20063;-74
2023/03/01 02:59:22;;;;;;;0.20;0.20;;;0.10;99.90;;;;;;5054894;28;20029;-74
2023/03/01 03:01:47;;;;;;;0.20;0.20;;;0.10;99.90;;;;;;5054618;28;20434;-74
2023/03/01 03:04:20;;;;;;;0.20;0.20;;;0.00;99.90;;;;;;5037067;28;20111;-74
2023/03/01 03:06:48;;;;;;;0.30;0.30;;;0.00;99.90;;;;;;5055031;28;20017;-74
2023/03/01 03:09:14;;;;;;;0.20;0.20;;;-0.10;99.90;;;;;;5054505;28;20436;-74
2023/03/01 03:11:41;;;;;;;0.20;0.20;;;-0.10;99.90;;;;;;5054893;28;20032;-74
2023/03/01 03:14:12;;;;;;;0.20;0.20;;;-0.10;99.90;;;;;;5054166;28;20040;-74
2023/03/01 03:16:43;;;;;;;0.20;0.20;;;-0.20;99.90;;;;;;5054794;28;20036;-74
2023/03/01 03:19:09;;;;;;;0.20;0.20;;;-0.10;99.90;;;;;;5055184;28;20474;-74
2023/03/01 03:21:35;;;;;;;0.20;0.20;;;-0.20;99.90;;;;;;5054415;28;20032;-74
2023/03/01 03:24:01;;;;;;;0.13;0.13;;;-0.20;99.90;;;;;;5054236;28;20450;-74
2023/03/01 03:26:26;;;;;;;0.20;0.20;;;-0.20;99.90;;;;;;5054236;28;20379;-74
2023/03/01 03:28:52;;;;;;;0.20;0.20;;;-0.10;99.90;;;;;;5054652;28;20090;-74
2023/03/01 03:31:18;;;;;;;0.20;0.20;;;-0.20;99.90;;;;;;5054065;28;20071;-74
2023/03/01 03:33:43;;;;;;;0.20;0.20;;;-0.30;99.90;;;;;;5054839;28;20025;-74
2023/03/01 03:36:12;;;;;;;0.30;0.30;;;-0.40;99.90;;;;;;5054275;28;20442;-74
2023/03/01 03:38:38;;;;;;;0.20;0.20;;;-0.40;99.90;;;;;;5052413;28;20032;-74
2023/03/01 03:41:08;;;;;;;0.10;0.10;;;-0.50;99.90;;;;;;5036865;28;20029;-74
2023/03/01 03:43:35;;;;;;;0.20;0.20;;;-0.50;99.90;;;;;;5053809;28;20392;-74
2023/03/01 03:46:05;;;;;;;0.20;0.20;;;-0.50;99.90;;;;;;5052597;28;20022;-73
2023/03/01 03:48:35;;;;;;;0.20;0.20;;;-0.50;99.90;;;;;;5054157;28;20074;-74
2023/03/01 03:51:01;;;;;;;0.20;0.20;;;-0.40;99.90;;;;;;5055908;28;20026;-74
2023/03/01 03:53:28;;;;;;;0.20;0.20;;;-0.50;99.90;;;;;;5057825;28;20443;-74
2023/03/01 03:55:54;;;;;;;0.20;0.20;;;-0.50;99.90;;;;;;5057962;28;20029;-74
2023/03/01 03:58:23;;;;;;;0.20;0.20;;;-0.60;99.90;;;;;;5058036;28;20086;-74
2023/03/01 04:00:58;;;;;;;0.20;0.20;;;-0.60;99.90;;;;;;5039993;28;20029;-74
2023/03/01 04:03:26;;;;;;;0.30;0.30;;;-0.60;99.90;;;;;;5058447;28;20115;-74
2023/03/01 04:05:52;;;;;;;0.20;0.20;;;-0.70;99.90;;;;;;5057151;28;20028;-74
2023/03/01 04:08:23;;;;;;;0.20;0.20;;;-0.70;99.90;;;;;;5057680;28;20027;-74
2023/03/01 04:10:52;;;;;;;0.17;0.17;;;-0.80;99.90;;;;;;5057992;28;20028;-74
2023/03/01 04:13:20;;;;;;;0.20;0.20;;;-0.80;99.90;;;;;;5057550;28;20025;-74
2023/03/01 04:15:51;;;;;;;0.28;0.28;;;-0.80;99.90;;;;;;5057413;28;20474;-74
2023/03/01 04:18:18;;;;;;;0.20;0.20;;;-0.90;99.90;;;;;;5057559;28;20060;-73
2023/03/01 04:20:44;;;;;;;0.10;0.10;;;-0.90;99.90;;;;;;5057584;28;20060;-74
2023/03/01 04:23:20;;;;;;;0.28;0.28;;;-1.00;99.90;;;;;;5057596;28;20052;-74
2023/03/01 04:25:57;;;;;;;0.10;0.10;;;-1.00;99.90;;;;;;5057593;28;20021;-74
2023/03/01 04:28:28;;;;;;;0.20;0.20;;;-1.00;99.90;;;;;;5057289;28;20482;-74
2023/03/01 04:30:56;;;;;;;0.20;0.20;;;-1.10;99.90;;;;;;5039834;28;20032;-74
2023/03/01 04:33:23;;;;;;;0.30;0.30;;;-1.10;99.90;;;;;;5057371;28;20029;-74
2023/03/01 04:35:51;;;;;;;0.20;0.20;;;-1.10;99.90;;;;;;5057474;28;20104;-74
2023/03/01 04:38:21;;;;;;;0.20;0.20;;;-1.10;99.90;;;;;;5039234;28;20393;-74
2023/03/01 04:40:47;;;;;;;0.20;0.20;;;-1.20;99.90;;;;;;5039131;28;20029;-74
2023/03/01 04:43:14;;;;;;;0.20;0.20;;;-1.20;99.90;;;;;;5057328;28;20070;-74
2023/03/01 04:45:40;;;;;;;0.20;0.20;;;-1.20;99.90;;;;;;5056757;28;20013;-74
2023/03/01 04:48:05;;;;;;;0.20;0.20;;;-1.20;99.90;;;;;;5056938;28;20028;-74
2023/03/01 04:50:31;;;;;;;0.22;0.22;;;-1.20;99.90;;;;;;5057007;28;20031;-74
2023/03/01 04:53:00;;;;;;;0.30;0.30;;;-1.20;99.90;;;;;;5057257;28;20056;-74
2023/03/01 04:55:27;;;;;;;0.10;0.10;;;-1.10;99.90;;;;;;5057014;28;20059;-74
2023/03/01 04:57:53;;;;;;;0.20;0.20;;;-1.10;99.90;;;;;;5056284;28;20028;-74
2023/03/01 05:00:21;;;;;;;0.20;0.20;;;-1.10;99.90;;;;;;5057379;28;20516;-74
2023/03/01 05:02:52;;;;;;;0.20;0.20;;;-1.10;99.90;;;;;;5056651;28;20078;-74
2023/03/01 05:05:20;;;;;;;0.20;0.20;;;-1.10;99.90;;;;;;5038768;28;20028;-73
2023/03/01 05:07:48;;;;;;;0.10;0.10;;;-1.10;99.90;;;;;;5056770;28;20070;-74
2023/03/01 05:10:13;;;;;;;0.20;0.20;;;-1.00;99.90;;;;;;5056899;28;20021;-74
2023/03/01 05:12:39;;;;;;;0.20;0.20;;;-1.00;99.90;;;;;;5056874;28;20139;-74
2023/03/01 05:15:06;;;;;;;0.20;0.20;;;-1.00;99.90;;;;;;5038023;28;20036;-74
2023/03/01 05:17:33;;;;;;;0.10;0.10;;;-1.00;99.90;;;;;;5057140;28;20116;-74
2023/03/01 05:19:59;;;;;;;0.10;0.10;;;-1.00;99.90;;;;;;5039070;28;20120;-74
2023/03/01 05:22:25;;;;;;;0.20;0.20;;;-1.00;99.90;;;;;;5056841;28;20060;-74
2023/03/01 05:24:50;;;;;;;0.10;0.10;;;-1.00;99.90;;;;;;5055611;28;20021;-74
2023/03/01 05:27:16;;;;;;;0.20;0.20;;;-1.00;99.90;;;;;;5056544;28;20036;-74
2023/03/01 05:29:42;;;;;;;0.20;0.20;;;-0.90;99.90;;;;;;5056327;28;20103;-74
2023/03/01 05:32:08;;;;;;;0.20;0.20;;;-0.90;99.90;;;;;;5056681;28;20032;-74
2023/03/01 05:34:38;;;;;;;0.20;0.20;;;-0.90;99.90;;;;;;5055753;28;20028;-74
2023/03/01 05:37:04;;;;;;;0.20;0.20;;;-0.90;99.90;;;;;;5056041;28;20045;-74
2023/03/01 05:39:29;;;;;;;0.20;0.20;;;-0.90;99.90;;;;;;5056226;28;20028;-73
2023/03/01 05:41:57;;;;;;;0.20;0.20;;;-0.90;99.90;;;;;;5055494;28;20028;-74
2023/03/01 05:44:23;;;;;;;0.15;0.15;;;-0.90;99.90;;;;;;5056318;28;20100;-74
2023/03/01 05:46:50;;;;;;;0.30;0.30;;;-0.90;99.90;;;;;;5055622;28;20033;-74
2023/03/01 05:49:15;;;;;;;0.10;0.10;;;-0.90;99.90;;;;;;5056093;28;20025;-74
2023/03/01 05:51:42;;;;;;;0.20;0.20;;;-0.90;99.90;;;;;;5037816;28;20028;-74
2023/03/01 05:54:09;;;;;;;0.20;0.20;;;-1.00;99.90;;;;;;5055795;28;20052;-74
2023/03/01 05:56:36;;;;;;;0.20;0.20;;;-0.90;99.90;;;;;;5055877;28;20116;-74
2023/03/01 05:59:02;;;;;;;0.20;0.20;;;-0.90;99.90;;;;;;5055717;28;20151;-74
2023/03/01 06:01:29;;;;;;;0.10;0.10;;;-0.90;99.90;;;;;;5055714;28;20115;-74
2023/03/01 06:03:55;;;;;;;0.10;0.10;;;-0.90;99.90;;;;;;5055617;28;20494;-74
2023/03/01 06:06:21;;;;;;;0.20;0.20;;;-0.90;99.90;;;;;;5055805;28;20070;-74
2023/03/01 06:08:46;;;;;;;0.20;0.20;;;-0.90;99.90;;;;;;5054808;28;20025;-74
2023/03/01 06:11:12;;;;;;;0.20;0.20;;;-0.90;99.90;;;;;;5055741;28;20036;-74
2023/03/01 06:13:37;;;;;;;0.20;0.20;;;-0.90;99.90;;;;;;5054659;28;20017;-74
2023/03/01 06:16:06;;;;;;;0.20;0.20;;;-0.90;99.90;;;;;;5055318;28;20037;-74
2023/03/01 06:18:32;;;;;;;0.20;0.20;;;-0.90;99.90;;;;;;5037210;28;20083;-74
2023/03/01 06:20:58;;;;;;;0.20;0.20;;;-0.90;99.90;;;;;;5055379;28;20444;-74
2023/03/01 06:23:24;;;;;;;0.20;0.20;;;-0.80;99.90;;;;;;5037532;28;20048;-74
2023/03/01 06:25:49;;;;;;;0.20;0.20;;;-0.80;99.90;;;;;;5054307;28;20036;-74
2023/03/01 06:28:18;;;;;;;0.17;0.17;;;-0.70;99.90;;;;;;5055380;28;20069;-74
2023/03/01 06:30:43;;;;;;;0.20;0.20;;;-0.70;99.90;;;;;;5055358;28;20398;-74
2023/03/01 06:33:09;;;;;;;0.20;0.20;;;-0.70;99.90;;;;;;5054763;28;20031;-74
2023/03/01 06:35:34;;;;;;;0.10;0.10;;;-0.70;99.90;;;;;;5037028;28;20029;-74
2023/03/01 06:38:02;;;;;;;0.20;0.20;;;-0.60;99.90;;;;;;5055265;28;20393;-74
2023/03/01 06:40:28;;;;;;;0.10;0.10;;;-0.60;99.90;;;;;;5036769;28;20029;-71
2023/03/01 06:42:53;;;;;;;0.17;0.17;;;-0.60;99.90;;;;;;5055133;28;20139;-71
2023/03/01 06:45:20;;;;;;;0.20;0.20;;;-0.60;99.90;;;;;;5054879;28;20486;-74
2023/03/01 06:47:46;;;;;;;0.20;0.20;;;-0.60;99.90;;;;;;5055214;28;20174;-72
2023/03/01 06:50:13;;;;;;;0.20;0.20;;;-0.60;99.90;;;;;;5054837;28;20398;-72
2023/03/01 06:52:38;;;;;;;0.10;0.10;;;-0.50;99.90;;;;;;5054801;28;20109;-72
2023/03/01 06:55:05;;;;;;;0.20;0.20;;;-0.50;99.90;;;;;;5054551;28;20053;-73
2023/03/01 06:57:30;;;;;;;0.30;0.30;;;-0.60;99.90;;;;;;5054790;28;20051;-75
2023/03/01 06:59:56;;;;;;;0.20;0.20;;;-0.60;99.90;;;;;;5037223;28;20482;-74
2023/03/01 07:02:22;;;;;;;0.20;0.20;;;-0.60;99.90;;;;;;5054154;28;20028;-74
2023/03/01 07:04:50;;;;;;;0.20;0.20;;;-0.60;99.90;;;;;;5037066;28;20021;-73
2023/03/01 07:07:17;;;;;;;0.20;0.20;;;-0.50;99.90;;;;;;5054513;28;20599;-73
2023/03/01 07:09:43;;;;;;;0.13;0.13;;;-0.50;99.90;;;;;;5037154;28;20075;-74
2023/03/01 07:12:09;;;;;;;0.20;0.20;;;-0.40;99.90;;;;;;5054696;28;20025;-74
2023/03/01 07:14:34;;;;;;;0.10;0.10;;;-0.30;99.90;;;;;;5054727;28;20025;-74
2023/03/01 07:17:00;;;;;;;0.20;0.20;;;-0.30;99.90;;;;;;5053917;28;20029;-74
2023/03/01 07:19:26;;;;;;;0.10;0.10;;;-0.30;99.90;;;;;;5054693;28;20501;-73
2023/03/01 07:21:51;;;;;;;0.20;0.20;;;-0.20;99.90;;;;;;5054323;28;20497;-73
2023/03/01 07:24:17;;;;;;;0.10;0.10;;;-0.10;99.90;;;;;;5054629;28;20025;-73
2023/03/01 07:26:42;;;;;;;0.13;0.13;;;-0.20;99.90;;;;;;5060741;28;20037;-74
2023/03/01 07:29:10;;;;;;;0.20;0.20;;;-0.20;99.90;;;;;;5060955;28;20452;-74
2023/03/01 07:31:36;;;;;;;0.10;0.10;;;-0.10;99.90;;;;;;5061664;28;20025;-73
2023/03/01 07:34:02;;;;;;;0.17;0.17;;;0.00;99.90;;;;;;5060140;28;20494;-72
2023/03/01 07:36:28;;;;;;;0.20;0.20;;;0.10;99.90;;;;;;5061226;28;20075;-73
2023/03/01 07:38:55;;;;;;;0.20;0.20;;;0.10;99.90;;;;;;5060573;28;20029;-73
2023/03/01 07:41:21;;;;;;;0.13;0.13;;;0.20;99.90;;;;;;5043971;28;20088;-73
2023/03/01 07:43:48;;;;;;;0.20;0.20;;;0.20;99.90;;;;;;5060930;28;20063;-73
2023/03/01 07:46:14;;;;;;;0.20;0.20;;;0.20;99.90;;;;;;5060670;28;20078;-73
2023/03/01 07:48:42;;;;;;;0.20;0.20;;;0.30;99.90;;;;;;5042640;28;20020;-73
2023/03/01 07:51:08;;;;;;;0.10;0.10;;;0.30;99.90;;;;;;5060738;28;20047;-73
2023/03/01 07:53:34;;;;;;;0.10;0.10;;;0.30;99.90;;;;;;5061256;28;20025;-73
2023/03/01 07:56:06;;;;;;;0.10;0.10;;;0.30;99.90;;;;;;5060600;28;20033;-73
2023/03/01 07:58:35;;;;;;;0.20;0.20;;;0.40;99.90;;;;;;5061128;28;20023;-73
2023/03/01 08:01:06;;;;;;;0.20;0.20;;;0.50;99.90;;;;;;5060475;28;20017;-73
2023/03/01 08:03:31;;;;;;;0.20;0.20;;;0.50;99.90;;;;;;5060592;28;20025;-73
2023/03/01 08:06:00;;;;;;;0.10;0.10;;;0.70;99.90;;;;;;5060839;28;20017;-73
2023/03/01 08:08:26;;;;;;;0.10;0.10;;;0.70;99.90;;;;;;5041994;28;20017;-73
2023/03/01 08:10:51;;;;;;;0.20;0.20;;;0.80;99.90;;;;;;5061075;28;20433;-73
2023/03/01 08:13:22;;;;;;;0.20;0.20;;;0.80;99.90;;;;;;5060402;28;20037;-73
2023/03/01 08:15:48;;;;;;;0.10;0.10;;;1.00;99.90;;;;;;5060726;28;20021;-73
2023/03/01 08:18:13;;;;;;;0.20;0.20;;;0.90;99.90;;;;;;5042456;28;20094;-73
2023/03/01 08:20:39;;;;;;;0.10;0.10;;;1.10;99.90;;;;;;5042410;28;20033;-73
2023/03/01 08:23:04;;;;;;;0.17;0.17;;;1.10;99.90;;;;;;5060513;28;20036;-73
2023/03/01 08:25:30;;;;;;;0.13;0.13;;;1.10;99.90;;;;;;5042255;28;20032;-73
2023/03/01 08:27:55;;;;;;;0.10;0.10;;;1.10;99.90;;;;;;5060986;28;20025;-73
2023/03/01 08:30:23;;;;;;;0.20;0.20;;;1.10;99.90;;;;;;5041737;28;20021;-74
2023/03/01 08:32:49;;;;;;;0.13;0.13;;;1.20;99.90;;;;;;5060833;28;20052;-73
2023/03/01 08:35:14;;;;;;;0.10;0.10;;;1.30;99.90;;;;;;5060293;28;20444;-73
2023/03/01 08:37:40;;;;;;;0.17;0.17;;;1.40;99.90;;;;;;5057303;28;20040;-73
2023/03/01 08:40:08;;;;;;;0.20;0.20;;;1.50;99.90;;;;;;5057093;28;20066;-73
2023/03/01 08:42:34;;;;;;;0.20;0.20;;;1.60;99.90;;;;;;5038635;28;20165;-73
2023/03/01 08:44:59;;;;;;;0.10;0.10;;;1.50;99.90;;;;;;5057162;28;20025;-73
2023/03/01 08:47:26;;;;;;;0.10;0.10;;;1.50;99.90;;;;;;5056990;28;20032;-73
2023/03/01 08:49:52;;;;;;;0.20;0.20;;;1.50;99.90;;;;;;5057119;28;20064;-73
2023/03/01 08:52:19;;;;;;;0.20;0.20;;;1.60;99.90;;;;;;5038684;28;20017;-73
2023/03/01 08:54:44;;;;;;;0.10;0.10;;;1.60;99.90;;;;;;5056609;28;20427;-73
2023/03/01 08:57:10;;;;;;;0.10;0.10;;;1.70;99.90;;;;;;5056585;28;20170;-73
2023/03/01 08:59:37;;;;;;;0.13;0.13;;;1.90;99.90;;;;;;5057010;28;20063;-74
2023/03/01 09:02:04;;;;;;;0.10;0.10;;;2.00;99.90;;;;;;5056475;28;20025;-74
2023/03/01 09:04:29;;;;;;;0.20;0.20;;;2.10;99.90;;;;;;5057138;28;20422;-74
2023/03/01 09:06:55;;;;;;;0.20;0.20;;;2.10;99.90;;;;;;5056273;28;20025;-74
2023/03/01 09:09:20;;;;;;;0.20;0.20;;;2.20;99.90;;;;;;5056788;28;20033;-74
2023/03/01 09:11:46;;;;;;;0.15;0.15;;;2.00;99.90;;;;;;5038398;28;20017;-74
2023/03/01 09:14:13;;;;;;;0.17;0.17;;;2.10;99.90;;;;;;5056744;28;20067;-74
2023/03/01 09:16:39;;;;;;;0.10;0.10;;;2.10;99.90;;;;;;5056271;28;20113;-73
2023/03/01 09:19:05;;;;;;;0.10;0.10;;;2.30;99.90;;;;;;5056101;28;20041;-74
2023/03/01 09:21:31;;;;;;;0.10;0.10;;;2.40;99.90;;;;;;5056508;28;20505;-74
2023/03/01 09:23:57;;;;;;;0.10;0.10;;;2.50;99.90;;;;;;5038386;28;20016;-73
2023/03/01 09:26:23;;;;;;;0.10;0.10;;;2.60;99.90;;;;;;5056086;28;20029;-72
2023/03/01 09:28:50;;;;;;;0.15;0.15;;;2.50;99.90;;;;;;5055973;28;20036;-72
2023/03/01 09:31:18;;;;;;;0.20;0.20;;;2.50;99.90;;;;;;5056576;28;20017;-73
2023/03/01 09:33:46;;;;;;;0.10;0.10;;;2.60;99.90;;;;;;5055801;28;20024;-73
2023/03/01 09:36:17;;;;;;;0.10;0.10;;;2.60;99.90;;;;;;5038453;28;20482;-73
2023/03/01 09:38:43;;;;;;;0.10;0.10;;;2.70;99.90;;;;;;5038095;28;20040;-73
2023/03/01 09:41:44;;;;;;;0.20;0.20;;;2.70;99.90;;;;;;5055947;28;20033;-73
2023/03/01 09:44:23;;;;;;;0.13;0.13;;;2.70;99.90;;;;;;5055814;28;20032;-73
2023/03/01 09:46:51;;;;;;;0.20;0.20;;;2.80;99.90;;;;;;5054975;28;20509;-73
2023/03/01 09:49:21;;;;;;;0.17;0.17;;;2.90;99.90;;;;;;5055239;28;20043;-73
2023/03/01 09:51:58;;;;;;;0.20;0.20;;;3.00;99.90;;;;;;5056020;28;20124;-71
2023/03/01 09:54:26;;;;;;;0.20;0.20;;;3.10;99.90;;;;;;5055878;28;20029;-73
2023/03/01 09:57:06;;;;;;;0.17;0.17;;;3.20;99.90;;;;;;5037493;28;20508;-73
2023/03/01 10:00:00;;;;;;;0.20;0.20;;;3.30;99.90;;;;;;5056217;28;20389;-72
2023/03/01 10:02:49;;;;;;;0.20;0.20;;;3.20;99.90;;;;;;5055576;28;20025;-73
2023/03/01 10:05:48;;;;;;;0.20;0.20;;;3.30;99.90;;;;;;5055131;28;20036;-72
2023/03/01 10:08:38;;;;;;;0.20;0.20;;;3.30;99.90;;;;;;5055664;28;20021;-73
2023/03/01 10:11:12;;;;;;;0.20;0.20;;;3.30;99.90;;;;;;5056070;28;20071;-73
2023/03/01 10:13:38;;;;;;;0.10;0.10;;;3.30;99.90;;;;;;5055426;28;20029;-73
2023/03/01 10:16:25;;;;;;;0.20;0.20;;;3.40;99.90;;;;;;5037499;28;20441;-73
2023/03/01 10:19:01;;;;;;;0.10;0.10;;;3.50;99.90;;;;;;5055314;28;20083;-72
2023/03/01 10:21:31;;;;;;;0.13;0.13;;;3.50;99.90;;;;;;5055540;28;20040;-72
2023/03/01 10:24:08;;;;;;;0.20;0.20;;;3.60;99.90;;;;;;5054472;28;20100;-72
2023/03/01 10:27:00;;;;;;;0.15;0.15;;;3.60;99.90;;;;;;5054397;28;20029;-72
2023/03/01 10:29:31;;;;;;;0.10;0.10;;;3.80;99.90;;;;;;5034658;28;20113;-73
2023/03/01 10:31:57;;;;;;;0.20;0.20;;;4.00;99.90;;;;;;5035306;28;20021;-73
2023/03/01 10:34:35;;;;;;;0.17;0.17;;;4.10;99.90;;;;;;5035459;28;20071;-73
2023/03/01 10:37:12;;;;;;;0.20;0.20;;;3.90;99.90;;;;;;5034371;28;20517;-73
2023/03/01 10:40:01;;;;;;;0.20;0.20;;;4.00;99.90;;;;;;5048661;28;20419;-73
2023/03/01 10:42:30;;;;;;;0.15;0.15;;;4.00;99.90;;;;;;5054331;28;20565;-73
2023/03/01 10:44:56;;;;;;;0.20;0.20;;;3.90;99.90;;;;;;5055149;28;20371;-73
2023/03/01 10:47:24;;;;;;;0.20;0.20;;;4.00;99.90;;;;;;5054811;28;20075;-73
2023/03/01 10:49:56;;;;;;;0.20;0.20;;;3.90;99.90;;;;;;5054007;28;20042;-73
2023/03/01 10:52:29;;;;;;;0.10;0.10;;;3.90;99.90;;;;;;5054878;28;20019;-73
2023/03/01 10:55:01;;;;;;;0.10;0.10;;;3.90;99.90;;;;;;5054565;28;20025;-73
2023/03/01 10:57:31;;;;;;;0.20;0.20;;;4.00;99.90;;;;;;5054223;28;20036;-75
2023/03/01 11:00:16;;;;;;;0.20;0.20;;;4.00;99.90;;;;;;5053788;28;20390;-73
2023/03/01 11:02:42;;;;;;;0.13;0.13;;;4.20;99.90;;;;;;5036587;28;20032;-72
2023/03/01 11:05:13;;;;;;;0.20;0.20;;;4.30;99.90;;;;;;5054433;28;20366;-72
2023/03/01 11:07:59;;;;;;;0.20;0.20;;;4.30;99.90;;;;;;5035989;28;20116;-72
2023/03/01 11:10:31;;;;;;;0.13;0.13;;;4.40;99.90;;;;;;5055199;28;20025;-72
2023/03/01 11:13:18;;;;;;;0.10;0.10;;;4.50;99.90;;;;;;5054341;28;20021;-72
2023/03/01 11:15:58;;;;;;;0.20;0.20;;;4.40;99.90;;;;;;5054699;28;20060;-72
2023/03/01 11:18:31;;;;;;;0.20;0.20;;;4.40;99.90;;;;;;5054300;28;20029;-72
2023/03/01 11:21:01;;;;;;;0.20;0.20;;;4.50;99.90;;;;;;5053439;28;20494;-72
2023/03/01 11:23:30;;;;;;;0.20;0.20;;;4.70;99.90;;;;;;5036860;28;20036;-72
2023/03/01 11:25:59;;;;;;;0.20;0.20;;;4.80;99.90;;;;;;5053974;28;20061;-72
2023/03/01 11:28:27;;;;;;;0.10;0.10;;;4.80;99.90;;;;;;5054155;28;20110;-72
2023/03/01 11:31:05;;;;;;;0.20;0.20;;;4.50;99.90;;;;;;5054060;28;20029;-72
2023/03/01 11:33:41;;;;;;;0.20;0.20;;;4.70;99.90;;;;;;5054332;28;20065;-72
2023/03/01 11:36:08;;;;;;;0.13;0.13;;;4.70;99.90;;;;;;5053746;28;20104;-72
2023/03/01 11:38:38;;;;;;;0.20;0.20;;;4.70;99.90;;;;;;5036309;28;20033;-72
2023/03/01 11:41:05;;;;;;;0.13;0.13;;;4.70;99.90;;;;;;5036184;28;20021;-72
2023/03/01 11:43:54;;;;;;;0.20;0.20;;;4.70;99.90;;;;;;5053588;28;20017;-72
2023/03/01 11:46:34;;;;;;;0.20;0.20;;;4.80;99.90;;;;;;5053354;28;20029;-72
2023/03/01 11:49:14;;;;;;;0.10;0.10;;;4.80;99.90;;;;;;5036127;28;20505;-72
2023/03/01 11:52:02;;;;;;;0.20;0.20;;;4.60;99.90;;;;;;5036072;28;20096;-72
2023/03/01 11:54:57;;;;;;;0.20;0.20;;;4.70;99.90;;;;;;5036155;28;20021;-72
2023/03/01 11:57:41;;;;;;;0.20;0.20;;;4.70;99.90;;;;;;5053092;28;20028;-72
2023/03/01 12:00:14;;;;;;;;;;;4.70;99.90;;;;;;5054320;28;20108;-72
2023/03/01 12:02:45;;;;;;;0.20;0.20;;;4.90;99.90;;;;;;5053704;28;19970;-72
2023/03/01 12:06:04;;;;;;;0.20;0.20;;;4.90;99.90;;;;;;5053753;28;20045;-72
2023/03/01 12:08:51;;;;;;;0.20;0.20;;;4.90;99.90;;;;;;4992600;28;20042;-72
2023/03/01 12:11:40;;;;;;;0.20;0.20;;;4.90;99.90;;;;;;5050565;28;20041;-72
2023/03/01 12:14:20;;;;;;;0.20;0.20;;;4.80;99.90;;;;;;5058051;28;20405;-72
2023/03/01 12:17:04;;;;;;;0.20;0.20;;;4.80;99.90;;;;;;5056781;28;20025;-72
2023/03/01 12:20:03;;;;;;;0.20;0.20;;;4.70;99.90;;;;;;5057805;28;20057;-72
2023/03/01 12:22:42;;;;;;;0.20;0.20;;;4.60;99.90;;;;;;5018313;28;20040;-72
2023/03/01 12:25:29;;;;;;;0.20;0.20;;;4.80;99.90;;;;;;5057621;28;20074;-72
2023/03/01 12:28:20;;;;;;;0.20;0.20;;;4.90;99.90;;;;;;5057614;28;20163;-72
2023/03/01 12:31:11;;;;;;;0.30;0.30;;;4.90;99.90;;;;;;5057149;28;20029;-72
2023/03/01 12:33:56;;;;;;;0.10;0.10;;;4.90;99.90;;;;;;5057338;28;20060;-72
2023/03/01 12:36:36;;;;;;;0.20;0.20;;;4.90;99.90;;;;;;5056889;28;20074;-72
2023/03/01 12:39:21;;;;;;;0.20;0.20;;;4.90;99.90;;;;;;5039423;28;20029;-72
2023/03/01 12:42:27;;;;;;;0.15;0.15;;;5.00;99.90;;;;;;5039443;28;20043;-72
2023/03/01 12:45:13;;;;;;;0.20;0.20;;;4.80;99.90;;;;;;5057029;28;20143;-72
2023/03/01 12:48:17;;;;;;;0.20;0.20;;;4.90;99.90;;;;;;5056969;28;20052;-72
2023/03/01 12:50:53;;;;;;;0.20;0.20;;;5.20;99.90;;;;;;5057195;28;20375;-72
2023/03/01 12:53:47;;;;;;;0.20;0.20;;;5.20;99.90;;;;;;5056724;28;20111;-72
2023/03/01 12:56:17;;;;;;;0.20;0.20;;;5.40;99.90;;;;;;5055183;28;20107;-72
2023/03/01 12:59:13;;;;;;;0.20;0.20;;;5.40;99.90;;;;;;5056843;28;20025;-72
2023/03/01 13:02:01;;;;;;;0.20;0.20;;;5.30;99.90;;;;;;5038241;28;20025;-72
2023/03/01 13:04:51;;;;;;;0.20;0.20;;;5.30;99.90;;;;;;5056799;28;20024;-72
2023/03/01 13:07:38;;;;;;;0.20;0.20;;;5.10;99.90;;;;;;5056496;28;20475;-72
2023/03/01 13:10:49;;;;;;;0.20;0.20;;;5.20;99.90;;;;;;5038722;28;20060;-72
2023/03/01 13:13:23;;;;;;;0.20;0.20;;;5.60;99.90;;;;;;5013822;28;20026;-72
2023/03/01 13:15:53;;;;;;;0.20;0.20;;;5.90;99.90;;;;;;5014827;28;20069;-72